sensor_id;sensor_type;location;lat;lon;timestamp;pressure;altitude;pressure_sealevel;temperature;humidity
44531;BME280;30240;47.418;0.700;2023-06-10T00:00:24;99713.7939453125;;;18.51;90.18
44531;BME280;30240;47.418;0.700;2023-06-10T00:02:49;99706.45141601562;;;18.57;90.23
44531;BME280;30240;47.418;0.700;2023-06-10T00:05:17;99704.18090820312;;;18.64;90.55
44531;BME280;30240;47.418;0.700;2023-06-10T00:07:39;99704.18701171875;;;18.6;90.55
44531;BME280;30240;47.418;0.700;2023-06-10T00:10:04;99704.18701171875;;;18.6;90.55
44531;BME280;30240;47.418;0.700;2023-06-10T00:12:28;99706.9091796875;;;18.78;90.41
44531;BME280;30240;47.418;0.700;2023-06-10T00:14:53;99708.92333984375;;;18.84;90.62
44531;BME280;30240;47.418;0.700;2023-06-10T00:17:19;99710.888671875;;;18.56;90.33
44531;BME280;30240;47.418;0.700;2023-06-10T00:19:44;99705.13916015625;;;18.7;90.6
44531;BME280;30240;47.418;0.700;2023-06-10T00:22:09;99705.13916015625;;;18.7;90.6
44531;BME280;30240;47.418;0.700;2023-06-10T00:24:33;99712.51831054688;;;18.76;90.49
44531;BME280;30240;47.418;0.700;2023-06-10T00:26:58;99712.2314453125;;;18.76;90.49
44531;BME280;30240;47.418;0.700;2023-06-10T00:29:23;99717.05322265625;;;18.6;90.55
44531;BME280;30240;47.418;0.700;2023-06-10T00:31:48;99721.03271484375;;;18.55;90.76
44531;BME280;30240;47.418;0.700;2023-06-10T00:34:14;99721.03271484375;;;18.55;90.76
44531;BME280;30240;47.418;0.700;2023-06-10T00:36:38;99729.45556640625;;;18.55;90.73
44531;BME280;30240;47.418;0.700;2023-06-10T00:39:04;99733.16650390625;;;18.71;90.57
44531;BME280;30240;47.418;0.700;2023-06-10T00:41:28;99743.0419921875;;;18.8;90.36
44531;BME280;30240;47.418;0.700;2023-06-10T00:43:54;99749.12719726562;;;18.91;90.11
44531;BME280;30240;47.418;0.700;2023-06-10T00:46:19;99749.12719726562;;;18.91;90.11
44531;BME280;30240;47.418;0.700;2023-06-10T00:48:44;99754.52880859375;;;18.77;89.85
44531;BME280;30240;47.418;0.700;2023-06-10T00:51:09;99762.33520507812;;;18.9;90.01
44531;BME280;30240;47.418;0.700;2023-06-10T00:53:34;99767.236328125;;;18.95;89.89
44531;BME280;30240;47.418;0.700;2023-06-10T00:55:59;99767.73681640625;;;18.83;89.7
44531;BME280;30240;47.418;0.700;2023-06-10T00:58:24;99767.73681640625;;;18.83;89.7
44531;BME280;30240;47.418;0.700;2023-06-10T01:00:49;99770.95947265625;;;18.93;89.76
44531;BME280;30240;47.418;0.700;2023-06-10T01:03:14;99772.59521484375;;;19.07;89.62
44531;BME280;30240;47.418;0.700;2023-06-10T01:05:39;99768.57299804688;;;19.08;89.55
44531;BME280;30240;47.418;0.700;2023-06-10T01:08:08;99771.59423828125;;;19.08;89.8
44531;BME280;30240;47.418;0.700;2023-06-10T01:10:32;99771.59423828125;;;19.08;89.8
44531;BME280;30240;47.418;0.700;2023-06-10T01:12:58;99769.37255859375;;;19.21;89.8
44531;BME280;30240;47.418;0.700;2023-06-10T01:15:19;99774.57885742188;;;19.18;89.63
44531;BME280;30240;47.418;0.700;2023-06-10T01:17:54;99771.46606445312;;;19.28;89.75
44531;BME280;30240;47.418;0.700;2023-06-10T01:20:09;99771.78344726562;;;19.33;89.78
44531;BME280;30240;47.418;0.700;2023-06-10T01:22:33;99777.71606445312;;;19.21;89.79
44531;BME280;30240;47.418;0.700;2023-06-10T01:24:59;99777.71606445312;;;19.21;89.79
44531;BME280;30240;47.418;0.700;2023-06-10T01:27:26;99777.71606445312;;;19.23;89.79
44531;BME280;30240;47.418;0.700;2023-06-10T01:29:54;99780.37719726562;;;19.15;89.84
44531;BME280;30240;47.418;0.700;2023-06-10T01:29:59;99780.37719726562;;;19.15;89.84
44531;BME280;30240;47.418;0.700;2023-06-10T01:32:18;99780.87768554688;;;19.04;90.01
44531;BME280;30240;47.418;0.700;2023-06-10T01:34:39;99781.67114257812;;;19.01;90.2
44531;BME280;30240;47.418;0.700;2023-06-10T01:37:04;99781.67114257812;;;19.01;90.2
44531;BME280;30240;47.418;0.700;2023-06-10T01:39:29;99776.13525390625;;;18.94;90.21
44531;BME280;30240;47.418;0.700;2023-06-10T01:41:54;99776.31225585938;;;18.95;90.32
44531;BME280;30240;47.418;0.700;2023-06-10T01:44:19;99779.94384765625;;;19.08;90.15
44531;BME280;30240;47.418;0.700;2023-06-10T01:46:43;99782.95288085938;;;18.98;90.01
44531;BME280;30240;47.418;0.700;2023-06-10T01:49:08;99782.95288085938;;;18.98;90.01
44531;BME280;30240;47.418;0.700;2023-06-10T01:51:33;99785.77880859375;;;18.98;90.07
44531;BME280;30240;47.418;0.700;2023-06-10T01:53:58;99786.81030273438;;;18.94;90.07
44531;BME280;30240;47.418;0.700;2023-06-10T01:56:23;99786.376953125;;;18.93;90.19
44531;BME280;30240;47.418;0.700;2023-06-10T01:58:48;99790.185546875;;;19.01;90.15
44531;BME280;30240;47.418;0.700;2023-06-10T02:01:13;99790.185546875;;;19.01;90.15
44531;BME280;30240;47.418;0.700;2023-06-10T02:03:38;99787.49389648438;;;18.97;90.17
44531;BME280;30240;47.418;0.700;2023-06-10T02:06:04;99791.31469726562;;;18.94;90.22
44531;BME280;30240;47.418;0.700;2023-06-10T02:08:29;99791.43676757812;;;18.7;90.39
44531;BME280;30240;47.418;0.700;2023-06-10T02:10:54;99793.95141601562;;;18.69;90.65
44531;BME280;30240;47.418;0.700;2023-06-10T02:13:19;99793.95141601562;;;18.69;90.65
44531;BME280;30240;47.418;0.700;2023-06-10T02:15:44;99792.02270507812;;;18.7;90.71
44531;BME280;30240;47.418;0.700;2023-06-10T02:18:08;99794.6044921875;;;18.78;90.71
44531;BME280;30240;47.418;0.700;2023-06-10T02:20:34;99790.7958984375;;;18.76;90.66
44531;BME280;30240;47.418;0.700;2023-06-10T02:22:58;99790.5029296875;;;18.86;90.63
44531;BME280;30240;47.418;0.700;2023-06-10T02:25:23;99790.5029296875;;;18.86;90.63
44531;BME280;30240;47.418;0.700;2023-06-10T02:27:48;99786.9873046875;;;18.8;90.5
44531;BME280;30240;47.418;0.700;2023-06-10T02:30:14;99784.1064453125;;;18.73;90.42
44531;BME280;30240;47.418;0.700;2023-06-10T02:32:38;99782.25708007812;;;18.83;90.5
44531;BME280;30240;47.418;0.700;2023-06-10T02:35:04;99780.95092773438;;;18.69;90.45
44531;BME280;30240;47.418;0.700;2023-06-10T02:37:28;99780.95092773438;;;18.69;90.45
44531;BME280;30240;47.418;0.700;2023-06-10T02:39:54;99783.642578125;;;18.69;90.59
44531;BME280;30240;47.418;0.700;2023-06-10T02:42:18;99786.02905273438;;;18.83;90.66
44531;BME280;30240;47.418;0.700;2023-06-10T02:44:44;99787.5;;;18.9;90.51
44531;BME280;30240;47.418;0.700;2023-06-10T02:47:08;99787.77465820312;;;18.93;90.43
44531;BME280;30240;47.418;0.700;2023-06-10T02:49:34;99787.77465820312;;;18.93;90.43
44531;BME280;30240;47.418;0.700;2023-06-10T02:51:59;99788.427734375;;;18.87;90.24
44531;BME280;30240;47.418;0.700;2023-06-10T02:54:24;99792.96875;;;18.91;90.24
44531;BME280;30240;47.418;0.700;2023-06-10T02:56:49;99796.9970703125;;;18.93;90.32
44531;BME280;30240;47.418;0.700;2023-06-10T02:59:14;99795.67260742188;;;18.83;90.34
44531;BME280;30240;47.418;0.700;2023-06-10T03:01:39;99792.7978515625;;;18.93;90.34
44531;BME280;30240;47.418;0.700;2023-06-10T03:04:04;99792.7978515625;;;18.93;90.34
44531;BME280;30240;47.418;0.700;2023-06-10T03:06:29;99792.76733398438;;;18.83;90.29
44531;BME280;30240;47.418;0.700;2023-06-10T03:08:54;99785.90698242188;;;18.7;90.11
44531;BME280;30240;47.418;0.700;2023-06-10T03:11:19;99786.5478515625;;;18.73;89.94
44531;BME280;30240;47.418;0.700;2023-06-10T03:13:44;99790.087890625;;;18.55;89.85
44531;BME280;30240;47.418;0.700;2023-06-10T03:16:08;99790.087890625;;;18.55;89.85
44531;BME280;30240;47.418;0.700;2023-06-10T03:18:34;99785.04028320312;;;18.53;89.61
44531;BME280;30240;47.418;0.700;2023-06-10T03:20:59;99784.2529296875;;;18.57;89.86
44531;BME280;30240;47.418;0.700;2023-06-10T03:23:23;99788.58642578125;;;18.51;89.79
44531;BME280;30240;47.418;0.700;2023-06-10T03:25:49;99787.26806640625;;;18.56;89.74
44531;BME280;30240;47.418;0.700;2023-06-10T03:28:14;99787.26806640625;;;18.56;89.74
44531;BME280;30240;47.418;0.700;2023-06-10T03:30:38;99789.111328125;;;18.7;89.75
44531;BME280;30240;47.418;0.700;2023-06-10T03:33:03;99794.54956054688;;;18.69;89.5
44531;BME280;30240;47.418;0.700;2023-06-10T03:35:29;99794.64111328125;;;18.77;89.77
44531;BME280;30240;47.418;0.700;2023-06-10T03:37:53;99789.1357421875;;;18.63;89.57
44531;BME280;30240;47.418;0.700;2023-06-10T03:40:18;99789.1357421875;;;18.63;89.57
44531;BME280;30240;47.418;0.700;2023-06-10T03:42:43;99789.61181640625;;;18.71;89.77
44531;BME280;30240;47.418;0.700;2023-06-10T03:45:09;99787.6220703125;;;18.7;89.58
44531;BME280;30240;47.418;0.700;2023-06-10T03:47:35;99788.34228515625;;;18.69;89.64
44531;BME280;30240;47.418;0.700;2023-06-10T03:49:59;99789.86206054688;;;18.84;89.5
44531;BME280;30240;47.418;0.700;2023-06-10T03:52:24;99789.86206054688;;;18.84;89.5
44531;BME280;30240;47.418;0.700;2023-06-10T03:54:48;99791.18041992188;;;18.76;89.27
44531;BME280;30240;47.418;0.700;2023-06-10T03:57:13;99798.30322265625;;;18.83;89.38
44531;BME280;30240;47.418;0.700;2023-06-10T03:59:38;99800.62255859375;;;18.81;89.52
44531;BME280;30240;47.418;0.700;2023-06-10T04:02:04;99809.814453125;;;18.76;89.38
44531;BME280;30240;47.418;0.700;2023-06-10T04:04:29;99809.814453125;;;18.76;89.38
44531;BME280;30240;47.418;0.700;2023-06-10T04:06:53;99809.79614257812;;;18.77;89.52
44531;BME280;30240;47.418;0.700;2023-06-10T04:09:18;99805.3955078125;;;18.74;89.52
44531;BME280;30240;47.418;0.700;2023-06-10T04:11:43;99809.48486328125;;;18.73;89.6
44531;BME280;30240;47.418;0.700;2023-06-10T04:14:08;99806.982421875;;;18.7;89.73
44531;BME280;30240;47.418;0.700;2023-06-10T04:16:33;99806.982421875;;;18.7;89.73
44531;BME280;30240;47.418;0.700;2023-06-10T04:18:59;99816.36962890625;;;18.87;89.66
44531;BME280;30240;47.418;0.700;2023-06-10T04:21:23;99811.21826171875;;;18.86;89.59
44531;BME280;30240;47.418;0.700;2023-06-10T04:23:48;99816.5283203125;;;18.77;89.57
44531;BME280;30240;47.418;0.700;2023-06-10T04:26:14;99816.81518554688;;;18.78;89.49
44531;BME280;30240;47.418;0.700;2023-06-10T04:28:38;99824.02954101562;;;18.78;89.46
44531;BME280;30240;47.418;0.700;2023-06-10T04:31:03;99824.02954101562;;;18.78;89.46
44531;BME280;30240;47.418;0.700;2023-06-10T04:33:28;99828.67431640625;;;18.93;89.47
44531;BME280;30240;47.418;0.700;2023-06-10T04:35:53;99826.94702148438;;;19.04;89.2
44531;BME280;30240;47.418;0.700;2023-06-10T04:38:18;99830.33447265625;;;19.0;89.14
44531;BME280;30240;47.418;0.700;2023-06-10T04:40:43;99826.171875;;;18.98;88.95
44531;BME280;30240;47.418;0.700;2023-06-10T04:43:08;99826.171875;;;18.98;88.95
44531;BME280;30240;47.418;0.700;2023-06-10T04:45:34;99824.66430664062;;;18.86;89.26
44531;BME280;30240;47.418;0.700;2023-06-10T04:47:58;99820.20263671875;;;18.81;89.25
44531;BME280;30240;47.418;0.700;2023-06-10T04:50:24;99820.12329101562;;;18.9;89.41
44531;BME280;30240;47.418;0.700;2023-06-10T04:52:49;99827.15454101562;;;19.04;89.17
44531;BME280;30240;47.418;0.700;2023-06-10T04:55:13;99827.15454101562;;;19.04;89.17
44531;BME280;30240;47.418;0.700;2023-06-10T04:57:38;99831.9091796875;;;19.0;89.2
44531;BME280;30240;47.418;0.700;2023-06-10T05:00:04;99838.92211914062;;;19.1;89.05
44531;BME280;30240;47.418;0.700;2023-06-10T05:02:28;99835.0341796875;;;18.98;88.97
44531;BME280;30240;47.418;0.700;2023-06-10T05:04:53;99825.97045898438;;;19.0;89.2
44531;BME280;30240;47.418;0.700;2023-06-10T05:07:19;99825.97045898438;;;19.0;89.2
44531;BME280;30240;47.418;0.700;2023-06-10T05:09:43;99822.998046875;;;18.81;89.08
44531;BME280;30240;47.418;0.700;2023-06-10T05:12:09;99824.59106445312;;;18.64;89.18
44531;BME280;30240;47.418;0.700;2023-06-10T05:14:33;99821.9970703125;;;18.71;89.15
44531;BME280;30240;47.418;0.700;2023-06-10T05:16:58;99828.43017578125;;;18.86;89.19
44531;BME280;30240;47.418;0.700;2023-06-10T05:19:23;99828.43017578125;;;18.86;89.19
44531;BME280;30240;47.418;0.700;2023-06-10T05:21:48;99822.81494140625;;;18.78;89.28
44531;BME280;30240;47.418;0.700;2023-06-10T05:24:13;99823.73657226562;;;18.91;89.57
44531;BME280;30240;47.418;0.700;2023-06-10T05:26:39;99828.076171875;;;18.91;89.46
44531;BME280;30240;47.418;0.700;2023-06-10T05:29:04;99838.92822265625;;;18.86;89.18
44531;BME280;30240;47.418;0.700;2023-06-10T05:31:29;99838.92822265625;;;18.86;89.18
44531;BME280;30240;47.418;0.700;2023-06-10T05:33:53;99838.58032226562;;;18.87;89.46
44531;BME280;30240;47.418;0.700;2023-06-10T05:36:19;99842.24853515625;;;18.91;89.23
44531;BME280;30240;47.418;0.700;2023-06-10T05:38:47;99843.4814453125;;;18.98;88.96
44531;BME280;30240;47.418;0.700;2023-06-10T05:41:09;99840.04516601562;;;19.14;88.64
44531;BME280;30240;47.418;0.700;2023-06-10T05:43:34;99840.04516601562;;;19.14;88.64
44531;BME280;30240;47.418;0.700;2023-06-10T05:45:58;99850.81787109375;;;19.14;88.59
44531;BME280;30240;47.418;0.700;2023-06-10T05:48:25;99841.07666015625;;;19.15;88.76
44531;BME280;30240;47.418;0.700;2023-06-10T05:50:49;99845.29418945312;;;18.93;88.82
44531;BME280;30240;47.418;0.700;2023-06-10T05:53:17;99838.48266601562;;;18.8;89.07
44531;BME280;30240;47.418;0.700;2023-06-10T05:55:38;99838.48266601562;;;18.8;89.07
44531;BME280;30240;47.418;0.700;2023-06-10T05:58:03;99841.12548828125;;;18.93;88.78
44531;BME280;30240;47.418;0.700;2023-06-10T06:00:28;99844.45190429688;;;18.87;89.1
44531;BME280;30240;47.418;0.700;2023-06-10T06:02:53;99843.5302734375;;;18.77;89.3
44531;BME280;30240;47.418;0.700;2023-06-10T06:05:19;99851.20239257812;;;18.91;89.0
44531;BME280;30240;47.418;0.700;2023-06-10T06:07:43;99857.0068359375;;;19.11;88.66
44531;BME280;30240;47.418;0.700;2023-06-10T06:10:09;99857.0068359375;;;19.11;88.66
44531;BME280;30240;47.418;0.700;2023-06-10T06:12:33;99861.32202148438;;;19.04;88.45
44531;BME280;30240;47.418;0.700;2023-06-10T06:14:58;99866.6748046875;;;19.25;88.31
44531;BME280;30240;47.418;0.700;2023-06-10T06:17:23;99871.57592773438;;;19.01;88.25
44531;BME280;30240;47.418;0.700;2023-06-10T06:19:48;99870.61157226562;;;19.05;88.14
44531;BME280;30240;47.418;0.700;2023-06-10T06:22:13;99870.61157226562;;;19.05;88.14
44531;BME280;30240;47.418;0.700;2023-06-10T06:24:38;99869.90356445312;;;19.19;88.15
44531;BME280;30240;47.418;0.700;2023-06-10T06:27:04;99871.435546875;;;19.32;87.81
44531;BME280;30240;47.418;0.700;2023-06-10T06:29:28;99875.72021484375;;;19.23;87.67
44531;BME280;30240;47.418;0.700;2023-06-10T06:31:53;99879.29077148438;;;19.18;87.93
44531;BME280;30240;47.418;0.700;2023-06-10T06:34:18;99879.29077148438;;;19.18;87.93
44531;BME280;30240;47.418;0.700;2023-06-10T06:36:44;99884.00268554688;;;19.02;88.08
44531;BME280;30240;47.418;0.700;2023-06-10T06:39:08;99883.86840820312;;;19.18;87.88
44531;BME280;30240;47.418;0.700;2023-06-10T06:41:34;99890.21606445312;;;18.98;87.45
44531;BME280;30240;47.418;0.700;2023-06-10T06:43:58;99890.478515625;;;19.07;87.87
44531;BME280;30240;47.418;0.700;2023-06-10T06:46:23;99890.478515625;;;19.07;87.87
44531;BME280;30240;47.418;0.700;2023-06-10T06:48:48;99889.794921875;;;19.47;87.74
44531;BME280;30240;47.418;0.700;2023-06-10T06:51:14;99883.36181640625;;;19.57;87.09
44531;BME280;30240;47.418;0.700;2023-06-10T06:53:39;99886.328125;;;19.63;86.9
44531;BME280;30240;47.418;0.700;2023-06-10T06:56:04;99892.46826171875;;;19.69;86.37
44531;BME280;30240;47.418;0.700;2023-06-10T06:58:28;99892.46826171875;;;19.69;86.37
44531;BME280;30240;47.418;0.700;2023-06-10T07:00:54;99888.86108398438;;;19.87;86.19
44531;BME280;30240;47.418;0.700;2023-06-10T07:03:19;99890.04516601562;;;19.96;85.9
44531;BME280;30240;47.418;0.700;2023-06-10T07:05:44;99889.53247070312;;;20.28;85.76
44531;BME280;30240;47.418;0.700;2023-06-10T07:08:08;99889.83764648438;;;20.46;85.84
44531;BME280;30240;47.418;0.700;2023-06-10T07:10:33;99889.83764648438;;;20.46;85.84
44531;BME280;30240;47.418;0.700;2023-06-10T07:13:03;99892.3828125;;;20.26;85.77
44531;BME280;30240;47.418;0.700;2023-06-10T07:15:24;99892.76733398438;;;20.36;85.54
44531;BME280;30240;47.418;0.700;2023-06-10T07:17:51;99897.8759765625;;;20.26;85.91
44531;BME280;30240;47.418;0.700;2023-06-10T07:22:41;99895.1416015625;;;20.13;85.95
44531;BME280;30240;47.418;0.700;2023-06-10T07:27:34;99893.6279296875;;;20.08;85.98
44531;BME280;30240;47.418;0.700;2023-06-10T07:30:01;99898.35815429688;;;20.23;85.99
44531;BME280;30240;47.418;0.700;2023-06-10T07:32:20;99899.0478515625;;;19.84;86.39
44531;BME280;30240;47.418;0.700;2023-06-10T07:34:46;99903.466796875;;;19.96;85.85
44531;BME280;30240;47.418;0.700;2023-06-10T07:37:09;99903.466796875;;;19.96;85.85
44531;BME280;30240;47.418;0.700;2023-06-10T07:39:39;99909.57641601562;;;20.29;85.61
44531;BME280;30240;47.418;0.700;2023-06-10T07:41:59;99908.84399414062;;;20.12;85.96
44531;BME280;30240;47.418;0.700;2023-06-10T07:44:25;99911.29760742188;;;20.12;85.79
44531;BME280;30240;47.418;0.700;2023-06-10T07:46:49;99915.4541015625;;;20.23;85.44
44531;BME280;30240;47.418;0.700;2023-06-10T07:49:14;99915.4541015625;;;20.23;85.44
44531;BME280;30240;47.418;0.700;2023-06-10T07:51:39;99912.68920898438;;;20.53;85.12
44531;BME280;30240;47.418;0.700;2023-06-10T07:56:29;99907.36083984375;;;20.53;85.33
44531;BME280;30240;47.418;0.700;2023-06-10T07:58:55;99899.85961914062;;;20.79;85.4
44531;BME280;30240;47.418;0.700;2023-06-10T08:01:22;99899.85961914062;;;20.79;85.4
44531;BME280;30240;47.418;0.700;2023-06-10T08:03:44;99895.78247070312;;;21.12;84.6
44531;BME280;30240;47.418;0.700;2023-06-10T08:06:09;99884.2041015625;;;21.3;84.39
44531;BME280;30240;47.418;0.700;2023-06-10T08:08:34;99892.46826171875;;;21.63;82.7
44531;BME280;30240;47.418;0.700;2023-06-10T08:10:59;99888.95263671875;;;21.61;83.59
44531;BME280;30240;47.418;0.700;2023-06-10T08:13:25;99888.95263671875;;;21.61;83.59
44531;BME280;30240;47.418;0.700;2023-06-10T08:15:50;99885.84594726562;;;21.97;83.21
44531;BME280;30240;47.418;0.700;2023-06-10T08:18:19;99894.58618164062;;;22.27;81.95
44531;BME280;30240;47.418;0.700;2023-06-10T08:20:39;99892.4072265625;;;21.16;83.33
44531;BME280;30240;47.418;0.700;2023-06-10T08:23:06;99887.20092773438;;;21.5;83.72
44531;BME280;30240;47.418;0.700;2023-06-10T08:25:29;99887.20092773438;;;21.5;83.72
44531;BME280;30240;47.418;0.700;2023-06-10T08:28:01;99888.232421875;;;21.95;83.09
44531;BME280;30240;47.418;0.700;2023-06-10T08:30:19;99883.203125;;;21.99;82.94
44531;BME280;30240;47.418;0.700;2023-06-10T08:32:45;99875.89111328125;;;22.51;81.56
44531;BME280;30240;47.418;0.700;2023-06-10T08:35:09;99862.75024414062;;;22.13;82.69
44531;BME280;30240;47.418;0.700;2023-06-10T08:37:34;99862.75024414062;;;22.13;82.69
44531;BME280;30240;47.418;0.700;2023-06-10T08:47:16;99818.1884765625;;;22.73;77.4
44531;BME280;30240;47.418;0.700;2023-06-10T08:49:47;99891.05224609375;;;23.96;76.41
44531;BME280;30240;47.418;0.700;2023-06-10T08:52:10;99891.05224609375;;;23.96;76.41
44531;BME280;30240;47.418;0.700;2023-06-10T08:54:38;99899.658203125;;;24.04;74.71
44531;BME280;30240;47.418;0.700;2023-06-10T08:57:01;99900.732421875;;;24.64;73.52
44531;BME280;30240;47.418;0.700;2023-06-10T08:59:24;99894.921875;;;25.71;71.87
44531;BME280;30240;47.418;0.700;2023-06-10T09:01:46;99899.267578125;;;26.08;69.11
44531;BME280;30240;47.418;0.700;2023-06-10T09:04:10;99899.267578125;;;26.08;69.11
44531;BME280;30240;47.418;0.700;2023-06-10T09:06:34;99906.62231445312;;;23.97;72.75
44531;BME280;30240;47.418;0.700;2023-06-10T09:09:01;99905.48706054688;;;24.05;74.32
44531;BME280;30240;47.418;0.700;2023-06-10T09:11:28;99905.2734375;;;24.03;74.43
44531;BME280;30240;47.418;0.700;2023-06-10T09:13:49;99917.18139648438;;;24.35;73.11
44531;BME280;30240;47.418;0.700;2023-06-10T09:16:22;99917.18139648438;;;24.35;73.11
44531;BME280;30240;47.418;0.700;2023-06-10T09:18:38;99922.84545898438;;;23.86;74.58
44531;BME280;30240;47.418;0.700;2023-06-10T09:21:10;99932.080078125;;;23.45;75.06
44531;BME280;30240;47.418;0.700;2023-06-10T09:23:37;99935.06469726562;;;23.35;76.17
44531;BME280;30240;47.418;0.700;2023-06-10T09:25:56;99941.05224609375;;;23.55;75.53
44531;BME280;30240;47.418;0.700;2023-06-10T09:28:20;99941.05224609375;;;23.55;75.53
44531;BME280;30240;47.418;0.700;2023-06-10T09:30:50;99943.359375;;;23.73;74.85
44531;BME280;30240;47.418;0.700;2023-06-10T09:33:12;99946.12426757812;;;24.05;74.73
44531;BME280;30240;47.418;0.700;2023-06-10T09:38:04;99938.5498046875;;;24.92;71.82
44531;BME280;30240;47.418;0.700;2023-06-10T09:40:28;99938.5498046875;;;24.92;71.82
44531;BME280;30240;47.418;0.700;2023-06-10T09:42:57;99931.57958984375;;;25.56;70.37
44531;BME280;30240;47.418;0.700;2023-06-10T09:45:19;99926.59301757812;;;25.96;69.16
44531;BME280;30240;47.418;0.700;2023-06-10T09:47:46;99928.125;;;26.75;67.01
44531;BME280;30240;47.418;0.700;2023-06-10T09:50:10;99929.49829101562;;;26.37;68.28
44531;BME280;30240;47.418;0.700;2023-06-10T09:52:29;99929.49829101562;;;26.37;68.28
44531;BME280;30240;47.418;0.700;2023-06-10T09:54:59;99940.4541015625;;;24.86;70.35
44531;BME280;30240;47.418;0.700;2023-06-10T09:59:52;99936.12670898438;;;23.32;75.63
44531;BME280;30240;47.418;0.700;2023-06-10T10:02:13;99939.70947265625;;;22.99;76.8
44531;BME280;30240;47.418;0.700;2023-06-10T10:04:35;99939.70947265625;;;22.99;76.8
44531;BME280;30240;47.418;0.700;2023-06-10T10:09:26;99941.29638671875;;;23.17;76.78
44531;BME280;30240;47.418;0.700;2023-06-10T10:11:51;99943.78051757812;;;22.72;77.33
44531;BME280;30240;47.418;0.700;2023-06-10T10:14:20;99946.39892578125;;;23.28;76.7
44531;BME280;30240;47.418;0.700;2023-06-10T10:16:45;99946.39892578125;;;23.28;76.7
44531;BME280;30240;47.418;0.700;2023-06-10T10:19:07;99943.08471679688;;;24.08;74.75
44531;BME280;30240;47.418;0.700;2023-06-10T10:21:37;99951.67236328125;;;23.28;75.52
44531;BME280;30240;47.418;0.700;2023-06-10T10:24:01;99953.04565429688;;;22.73;77.03
44531;BME280;30240;47.418;0.700;2023-06-10T10:26:25;99948.01635742188;;;22.48;78.48
44531;BME280;30240;47.418;0.700;2023-06-10T10:28:53;99939.73999023438;;;22.34;78.34
44531;BME280;30240;47.418;0.700;2023-06-10T10:28:58;99939.73999023438;;;22.34;78.34
44531;BME280;30240;47.418;0.700;2023-06-10T10:31:10;99939.73999023438;;;22.34;78.34
44531;BME280;30240;47.418;0.700;2023-06-10T10:33:40;99938.0859375;;;22.82;77.13
44531;BME280;30240;47.418;0.700;2023-06-10T10:36:00;99950.93994140625;;;23.31;76.96
44531;BME280;30240;47.418;0.700;2023-06-10T10:38:25;99943.95141601562;;;22.55;78.72
44531;BME280;30240;47.418;0.700;2023-06-10T10:40:51;99953.03344726562;;;22.93;77.96
44531;BME280;30240;47.418;0.700;2023-06-10T10:43:15;99953.03344726562;;;22.93;77.96
44531;BME280;30240;47.418;0.700;2023-06-10T10:45:39;99947.60131835938;;;22.58;77.93
44531;BME280;30240;47.418;0.700;2023-06-10T10:50:30;99954.77905273438;;;23.08;75.76
44531;BME280;30240;47.418;0.700;2023-06-10T10:52:59;99954.43115234375;;;23.28;75.91
44531;BME280;30240;47.418;0.700;2023-06-10T10:55:22;99954.43115234375;;;23.28;75.91
44531;BME280;30240;47.418;0.700;2023-06-10T11:00:10;99952.001953125;;;23.59;72.7
44531;BME280;30240;47.418;0.700;2023-06-10T11:02:35;99952.23999023438;;;22.93;72.86
44531;BME280;30240;47.418;0.700;2023-06-10T11:05:02;99953.2470703125;;;22.85;74.15
44531;BME280;30240;47.418;0.700;2023-06-10T11:07:26;99953.2470703125;;;22.85;74.15
44531;BME280;30240;47.418;0.700;2023-06-10T11:09:59;99952.392578125;;;22.82;75.46
44531;BME280;30240;47.418;0.700;2023-06-10T11:12:22;99951.15356445312;;;22.61;77.27
44531;BME280;30240;47.418;0.700;2023-06-10T11:14:53;99952.978515625;;;22.79;77.09
44531;BME280;30240;47.418;0.700;2023-06-10T11:17:18;99959.04541015625;;;21.77;82.88
44531;BME280;30240;47.418;0.700;2023-06-10T11:19:32;99959.04541015625;;;21.77;82.88
44531;BME280;30240;47.418;0.700;2023-06-10T11:21:58;99963.671875;;;21.66;83.65
44531;BME280;30240;47.418;0.700;2023-06-10T11:24:19;99965.17333984375;;;21.68;82.39
44531;BME280;30240;47.418;0.700;2023-06-10T11:26:44;99963.1103515625;;;21.66;82.88
44531;BME280;30240;47.418;0.700;2023-06-10T11:29:09;99958.8623046875;;;22.07;81.35
44531;BME280;30240;47.418;0.700;2023-06-10T11:31:38;99958.8623046875;;;22.07;81.35
44531;BME280;30240;47.418;0.700;2023-06-10T11:34:00;99953.662109375;;;22.69;80.28
44531;BME280;30240;47.418;0.700;2023-06-10T11:36:24;99946.17919921875;;;23.02;78.49
44531;BME280;30240;47.418;0.700;2023-06-10T11:38:49;99944.7998046875;;;23.51;76.4
44531;BME280;30240;47.418;0.700;2023-06-10T11:41:14;99936.54174804688;;;24.33;74.91
44531;BME280;30240;47.418;0.700;2023-06-10T11:43:40;99936.54174804688;;;24.33;74.91
44531;BME280;30240;47.418;0.700;2023-06-10T11:46:05;99930.2001953125;;;23.38;76.55
44531;BME280;30240;47.418;0.700;2023-06-10T11:48:29;99925.390625;;;24.28;74.26
44531;BME280;30240;47.418;0.700;2023-06-10T11:50:54;99930.69458007812;;;24.53;71.71
44531;BME280;30240;47.418;0.700;2023-06-10T11:53:19;99933.837890625;;;25.46;70.15